createdAt,value
2018-11-28T00:01:47.199Z,12.10
2018-11-28T00:04:16.084Z,12.10
2018-11-28T00:06:45.239Z,12.10
2018-11-28T00:09:15.081Z,12.10
2018-11-28T00:11:43.955Z,12.10
2018-11-28T00:14:13.088Z,12.10
2018-11-28T00:16:42.149Z,12.10
2018-11-28T00:19:11.717Z,12.10
2018-11-28T00:21:40.605Z,12.10
2018-11-28T00:24:10.265Z,12.10
2018-11-28T00:26:39.773Z,12.10
2018-11-28T00:29:09.174Z,12.10
2018-11-28T00:31:38.096Z,12.10
2018-11-28T00:34:07.225Z,12.10
2018-11-28T00:36:36.086Z,12.10
2018-11-28T00:39:07.654Z,12.10
2018-11-28T00:41:36.553Z,12.10
2018-11-28T00:44:05.666Z,12.10
2018-11-28T00:46:34.792Z,12.10
2018-11-28T00:49:03.719Z,12.10
2018-11-28T00:51:32.652Z,12.10
2018-11-28T00:54:02.181Z,12.10
2018-11-28T00:56:31.266Z,12.10
2018-11-28T00:59:00.506Z,12.10
2018-11-28T01:01:29.973Z,12.10
2018-11-28T01:03:58.857Z,12.10
2018-11-28T01:06:28.095Z,12.10
2018-11-28T01:08:57.037Z,12.10
2018-11-28T01:11:25.914Z,12.10
2018-11-28T01:13:54.792Z,12.10
2018-11-28T01:16:23.660Z,12.10
2018-11-28T01:18:52.925Z,12.10
2018-11-28T01:21:21.805Z,12.10
2018-11-28T01:23:50.915Z,12.10
2018-11-28T01:26:19.834Z,12.10
2018-11-28T01:28:49.001Z,12.10
2018-11-28T01:31:18.133Z,12.10
2018-11-28T01:33:47.013Z,12.10
2018-11-28T01:36:16.179Z,12.10
2018-11-28T01:38:45.045Z,12.10
2018-11-28T01:41:13.938Z,12.10
2018-11-28T01:43:43.365Z,12.10
2018-11-28T01:46:12.500Z,12.10
2018-11-28T01:48:42.199Z,12.10
2018-11-28T01:51:12.021Z,12.10
2018-11-28T01:53:40.955Z,12.10
2018-11-28T01:56:09.839Z,12.10
2018-11-28T01:58:38.730Z,12.10
2018-11-28T02:01:07.855Z,12.10
2018-11-28T02:03:37.257Z,12.10
2018-11-28T02:06:06.109Z,12.10
2018-11-28T02:08:35.001Z,12.10
2018-11-28T02:11:03.935Z,12.10
2018-11-28T02:13:33.325Z,12.00
2018-11-28T02:16:02.206Z,12.10
2018-11-28T02:18:31.075Z,12.00
2018-11-28T02:21:00.181Z,12.10
2018-11-28T02:23:29.134Z,12.00
2018-11-28T02:25:58.042Z,12.00
2018-11-28T02:28:26.913Z,12.00
2018-11-28T02:30:55.797Z,12.10
2018-11-28T02:33:24.921Z,12.00
2018-11-28T02:35:53.777Z,12.10
2018-11-28T02:38:22.670Z,12.00
2018-11-28T02:40:51.839Z,12.00
2018-11-28T02:43:20.711Z,12.00
2018-11-28T02:46:01.075Z,12.00
2018-11-28T02:48:30.291Z,12.00
2018-11-28T02:50:59.167Z,12.00
2018-11-28T02:53:28.071Z,12.00
2018-11-28T02:55:56.954Z,12.00
2018-11-28T02:58:25.839Z,12.00
2018-11-28T03:00:55.012Z,12.00
2018-11-28T03:03:24.143Z,12.00
2018-11-28T03:05:53.243Z,12.00
2018-11-28T03:08:21.916Z,12.00
2018-11-28T03:10:50.794Z,12.00
2018-11-28T03:13:19.701Z,12.00
2018-11-28T03:15:49.313Z,12.00
2018-11-28T03:18:18.674Z,12.00
2018-11-28T03:20:48.112Z,12.00
2018-11-28T03:23:17.145Z,12.00
2018-11-28T03:25:46.021Z,12.00
2018-11-28T03:28:17.885Z,11.90
2018-11-28T03:30:48.305Z,11.90
2018-11-28T03:33:18.424Z,11.90
2018-11-28T03:35:47.410Z,11.90
2018-11-28T03:38:16.282Z,11.90
2018-11-28T03:40:45.149Z,11.90
2018-11-28T03:43:17.469Z,11.90
2018-11-28T03:45:47.714Z,11.90
2018-11-28T03:48:21.728Z,11.90
2018-11-28T03:50:52.081Z,11.80
2018-11-28T03:53:21.702Z,11.80
2018-11-28T03:55:52.858Z,11.80
2018-11-28T03:58:23.616Z,11.80
2018-11-28T04:00:54.765Z,11.80
2018-11-28T04:03:25.276Z,11.80
2018-11-28T04:05:57.218Z,11.80
2018-11-28T04:08:27.872Z,11.80
2018-11-28T04:11:02.807Z,11.80
2018-11-28T04:13:32.923Z,11.80
2018-11-28T04:16:04.499Z,11.80
2018-11-28T04:18:35.121Z,11.80
2018-11-28T04:21:05.141Z,11.70
2018-11-28T04:23:35.962Z,11.70
2018-11-28T04:26:04.969Z,11.70
2018-11-28T04:28:35.769Z,11.70
2018-11-28T04:31:06.710Z,11.70
2018-11-28T04:33:35.693Z,11.70
2018-11-28T04:36:05.861Z,11.70
2018-11-28T04:38:36.162Z,11.60
2018-11-28T04:41:06.481Z,11.60
2018-11-28T04:43:36.293Z,11.60
2018-11-28T04:46:19.308Z,11.60
2018-11-28T04:48:49.751Z,11.60
2018-11-28T04:51:18.914Z,11.60
2018-11-28T04:53:49.276Z,11.60
2018-11-28T04:56:20.365Z,11.60
2018-11-28T04:58:49.832Z,11.60
2018-11-28T05:01:18.999Z,11.60
2018-11-28T05:03:48.119Z,11.60
2018-11-28T05:06:28.096Z,11.60
2018-11-28T05:08:58.344Z,11.60
2018-11-28T05:11:28.536Z,11.50
2018-11-28T05:14:03.450Z,11.50
2018-11-28T05:16:33.689Z,11.50
2018-11-28T05:19:04.069Z,11.50
2018-11-28T05:21:33.889Z,11.50
2018-11-28T05:24:03.913Z,11.50
2018-11-28T05:26:53.249Z,11.50
2018-11-28T05:29:23.144Z,11.50
2018-11-28T05:31:55.358Z,11.50
2018-11-28T05:34:25.960Z,11.40
2018-11-28T05:36:56.595Z,11.40
2018-11-28T05:39:26.670Z,11.50
2018-11-28T05:41:56.132Z,11.40
2018-11-28T05:44:25.329Z,11.50
2018-11-28T05:46:55.874Z,11.40
2018-11-28T05:49:26.021Z,11.40
2018-11-28T05:51:56.851Z,11.40
2018-11-28T05:54:27.178Z,11.40
2018-11-28T05:56:57.403Z,11.40
2018-11-28T05:59:27.724Z,11.40
2018-11-28T06:01:57.672Z,11.40
2018-11-28T06:04:28.019Z,11.40
2018-11-28T06:06:56.990Z,11.40
2018-11-28T06:09:27.055Z,11.40
2018-11-28T06:11:56.452Z,11.40
2018-11-28T06:14:26.452Z,11.40
2018-11-28T06:16:55.529Z,11.40
2018-11-28T06:19:24.404Z,11.30
2018-11-28T06:21:53.290Z,11.30
2018-11-28T06:24:23.146Z,11.30
2018-11-28T06:26:54.697Z,11.30
2018-11-28T06:29:25.479Z,11.30
2018-11-28T06:31:54.726Z,11.30
2018-11-28T06:34:24.256Z,11.30
2018-11-28T06:36:54.117Z,11.30
2018-11-28T06:39:23.185Z,11.30
2018-11-28T06:41:52.072Z,11.30
2018-11-28T06:44:20.964Z,11.30
2018-11-28T06:46:50.720Z,11.30
2018-11-28T06:49:19.593Z,11.30
2018-11-28T06:51:49.221Z,11.30
2018-11-28T06:54:18.394Z,11.30
2018-11-28T06:56:47.356Z,11.30
2018-11-28T06:59:16.224Z,11.30
2018-11-28T07:01:45.097Z,11.30
2018-11-28T07:04:14.526Z,11.30
2018-11-28T07:06:43.663Z,11.30
2018-11-28T07:09:22.635Z,11.30
2018-11-28T07:11:57.313Z,11.30
2018-11-28T07:17:27.214Z,11.30
2018-11-28T07:19:57.216Z,11.30
2018-11-28T07:22:26.969Z,11.30
2018-11-28T07:24:57.640Z,11.30
2018-11-28T07:27:27.666Z,11.30
2018-11-28T07:29:57.562Z,11.30
2018-11-28T07:32:27.420Z,11.30
2018-11-28T07:34:57.166Z,11.40
2018-11-28T07:37:30.833Z,11.40
2018-11-28T07:40:00.300Z,11.40
2018-11-28T07:42:29.793Z,11.40
2018-11-28T07:44:59.570Z,11.40
2018-11-28T07:47:29.416Z,11.40
2018-11-28T07:49:59.096Z,11.50
2018-11-28T07:52:28.086Z,11.50
2018-11-28T07:54:58.026Z,11.50
2018-11-28T07:57:27.535Z,11.50
2018-11-28T07:59:57.318Z,11.60
2018-11-28T08:02:27.137Z,11.60
2018-11-28T08:04:56.358Z,11.60
2018-11-28T08:07:25.476Z,11.60
2018-11-28T08:09:56.843Z,11.60
2018-11-28T08:12:26.258Z,11.70
2018-11-28T08:14:55.197Z,11.70
2018-11-28T08:17:24.099Z,11.80
2018-11-28T08:19:53.008Z,11.80
2018-11-28T08:22:24.155Z,12.00
2018-11-28T08:24:53.901Z,12.30
2018-11-28T08:27:23.390Z,12.80
2018-11-28T08:29:52.862Z,13.40
2018-11-28T08:32:22.719Z,14.00
2018-11-28T08:34:52.804Z,14.60
2018-11-28T08:37:22.343Z,15.30
2018-11-28T08:39:52.008Z,16.00
2018-11-28T08:42:20.953Z,16.60
2018-11-28T08:44:50.402Z,17.20
2018-11-28T08:47:20.216Z,17.70
2018-11-28T08:49:49.917Z,18.20
2018-11-28T08:52:21.672Z,18.70
2018-11-28T08:54:51.288Z,19.10
2018-11-28T08:57:20.453Z,19.50
2018-11-28T08:59:49.720Z,19.90
2018-11-28T09:02:19.289Z,20.30
2018-11-28T09:04:48.981Z,20.70
2018-11-28T09:07:18.802Z,21.20
2018-11-28T09:09:47.912Z,21.70
2018-11-28T09:12:16.794Z,22.10
2018-11-28T09:14:45.938Z,22.60
2018-11-28T09:17:15.399Z,22.90
2018-11-28T09:19:44.534Z,23.20
2018-11-28T09:22:13.490Z,23.50
2018-11-28T09:24:42.689Z,23.70
2018-11-28T09:27:11.654Z,23.90
2018-11-28T09:29:40.585Z,24.10
2018-11-28T09:32:09.510Z,24.30
2018-11-28T09:34:38.393Z,24.60
2018-11-28T09:37:07.641Z,24.80
2018-11-28T09:39:36.539Z,25.00
2018-11-28T09:42:06.454Z,25.20
2018-11-28T09:44:35.653Z,25.40
2018-11-28T09:47:04.541Z,25.60
2018-11-28T09:49:33.738Z,25.80
2018-11-28T09:52:03.025Z,26.00
2018-11-28T09:54:32.134Z,26.20
2018-11-28T09:57:01.045Z,26.40
2018-11-28T09:59:30.533Z,26.50
2018-11-28T10:01:59.853Z,26.70
2018-11-28T10:04:29.027Z,26.90
2018-11-28T10:06:57.903Z,27.10
2018-11-28T10:09:26.871Z,27.20
2018-11-28T10:11:55.905Z,27.40
2018-11-28T10:14:24.883Z,27.60
2018-11-28T10:16:54.879Z,27.70
2018-11-28T10:19:27.959Z,27.80
2018-11-28T10:21:56.882Z,28.00
2018-11-28T10:24:26.198Z,28.10
2018-11-28T10:26:55.068Z,28.20
2018-11-28T10:29:24.286Z,28.30
2018-11-28T10:31:53.797Z,28.30
2018-11-28T10:34:22.904Z,28.50
2018-11-28T10:36:51.804Z,28.60
2018-11-28T10:39:21.273Z,28.60
2018-11-28T10:41:50.168Z,28.70
2018-11-28T10:44:19.091Z,28.80
2018-11-28T10:46:49.301Z,29.00
2018-11-28T10:49:18.182Z,29.10
2018-11-28T10:51:50.277Z,29.20
2018-11-28T10:54:16.371Z,29.30
2018-11-28T10:56:45.238Z,29.50
2018-11-28T10:59:14.364Z,29.60
2018-11-28T11:01:49.508Z,29.70
2018-11-28T11:04:23.126Z,29.80
2018-11-28T11:06:57.059Z,30.00
2018-11-28T11:09:31.379Z,30.10
2018-11-28T11:12:07.905Z,30.20
2018-11-28T11:14:42.344Z,30.30
2018-11-28T11:17:11.422Z,30.30
2018-11-28T11:19:40.375Z,30.40
2018-11-28T11:22:09.799Z,30.50
2018-11-28T11:24:38.719Z,30.60
2018-11-28T11:27:07.887Z,30.60
2018-11-28T11:29:37.249Z,30.60
2018-11-28T11:32:07.494Z,30.70
2018-11-28T11:34:37.208Z,30.70
2018-11-28T11:37:06.464Z,30.80
2018-11-28T11:39:35.569Z,30.90
2018-11-28T11:42:05.023Z,31.00
2018-11-28T11:44:37.769Z,31.00
2018-11-28T11:47:07.507Z,31.10
2018-11-28T11:49:36.706Z,30.90
2018-11-28T11:52:06.997Z,30.70
2018-11-28T11:54:36.395Z,30.50
2018-11-28T11:57:06.162Z,30.30
2018-11-28T11:59:35.709Z,30.20
2018-11-28T12:02:06.097Z,30.10
2018-11-28T12:04:35.403Z,30.00
2018-11-28T12:07:05.763Z,29.90
2018-11-28T12:09:34.989Z,29.70
2018-11-28T12:12:05.098Z,29.60
2018-11-28T12:14:34.746Z,29.50
2018-11-28T12:17:06.018Z,29.40
2018-11-28T12:19:33.965Z,29.40
2018-11-28T12:22:04.347Z,29.40
2018-11-28T12:24:33.667Z,29.50
2018-11-28T12:27:02.585Z,29.50
2018-11-28T12:29:31.900Z,29.60
2018-11-28T12:32:02.258Z,29.60
2018-11-28T12:34:31.439Z,29.60
2018-11-28T12:37:02.854Z,29.60
2018-11-28T12:39:32.737Z,29.50
2018-11-28T12:42:01.972Z,29.50
2018-11-28T12:44:32.080Z,29.50
2018-11-28T12:47:01.612Z,29.50
2018-11-28T12:49:31.804Z,29.30
2018-11-28T12:52:01.004Z,29.30
2018-11-28T12:54:30.709Z,29.30
2018-11-28T12:57:00.383Z,29.20
2018-11-28T12:59:29.681Z,29.20
2018-11-28T13:01:58.536Z,29.10
2018-11-28T13:04:27.409Z,29.00
2018-11-28T13:06:56.297Z,29.00
2018-11-28T13:09:25.418Z,28.90
2018-11-28T13:11:59.985Z,28.80
2018-11-28T13:14:27.509Z,28.70
2018-11-28T13:16:57.152Z,28.70
2018-11-28T13:19:31.527Z,28.70
2018-11-28T13:22:03.211Z,28.50
2018-11-28T13:24:34.172Z,28.40
2018-11-28T13:27:03.404Z,28.40
2018-11-28T13:29:32.755Z,28.30
2018-11-28T13:32:02.525Z,28.20
2018-11-28T13:34:32.409Z,28.10
2018-11-28T13:37:01.941Z,28.00
2018-11-28T13:39:32.793Z,27.90
2018-11-28T13:42:01.809Z,27.80
2018-11-28T13:44:31.782Z,27.80
2018-11-28T13:47:02.763Z,27.70
2018-11-28T13:49:32.300Z,27.60
2018-11-28T13:52:01.673Z,27.40
2018-11-28T13:54:32.130Z,27.20
2018-11-28T13:57:04.374Z,27.00
2018-11-28T13:59:31.792Z,26.80
2018-11-28T14:02:02.031Z,26.50
2018-11-28T14:04:34.719Z,26.10
2018-11-28T14:07:05.322Z,25.80
2018-11-28T14:09:35.471Z,25.40
2018-11-28T14:12:05.420Z,25.10
2018-11-28T14:14:41.389Z,24.90
2018-11-28T14:17:14.611Z,24.60
2018-11-28T14:19:44.972Z,24.40
2018-11-28T14:22:23.675Z,24.10
2018-11-28T14:24:59.973Z,23.90
2018-11-28T14:27:40.510Z,23.60
2018-11-28T14:34:08.790Z,22.90
2018-11-28T14:36:56.941Z,22.40
2018-11-28T14:39:47.255Z,22.20
2018-11-28T14:42:21.430Z,22.00
2018-11-28T14:44:51.602Z,21.70
2018-11-28T14:47:21.443Z,21.50
2018-11-28T14:49:53.534Z,21.30
2018-11-28T14:52:22.626Z,21.10
2018-11-28T14:54:52.324Z,21.00
2018-11-28T14:57:22.506Z,20.80
2018-11-28T14:59:52.710Z,20.70
2018-11-28T15:02:22.679Z,20.50
2018-11-28T15:05:03.505Z,20.40
2018-11-28T15:07:38.624Z,20.20
2018-11-28T15:10:20.993Z,20.10
2018-11-28T15:13:01.500Z,20.00
2018-11-28T15:15:32.982Z,19.90
2018-11-28T15:18:02.614Z,19.70
2018-11-28T15:23:53.565Z,19.50
2018-11-28T15:26:23.191Z,19.40
2018-11-28T15:28:52.804Z,19.20
2018-11-28T15:31:22.555Z,19.10
2018-11-28T15:33:52.631Z,19.00
2018-11-28T15:36:22.300Z,18.90
2018-11-28T15:38:51.771Z,18.80
2018-11-28T15:41:21.251Z,18.70
2018-11-28T15:43:51.684Z,18.60
2018-11-28T15:46:21.391Z,18.50
2018-11-28T15:48:57.858Z,18.40
2018-11-28T15:51:27.875Z,18.30
2018-11-28T15:53:57.816Z,18.20
2018-11-28T15:56:27.896Z,18.10
2018-11-28T15:58:58.297Z,18.10
2018-11-28T16:01:27.304Z,18.00
2018-11-28T16:03:56.947Z,17.90
2018-11-28T16:06:26.757Z,17.80
2018-11-28T16:08:56.496Z,17.80
2018-11-28T16:11:26.416Z,17.70
2018-11-28T16:13:55.516Z,17.60
2018-11-28T16:16:25.290Z,17.60
2018-11-28T16:18:57.824Z,17.50
2018-11-28T16:21:25.004Z,17.40
2018-11-28T16:23:54.849Z,17.40
2018-11-28T16:26:24.788Z,17.30
2018-11-28T16:28:55.580Z,17.20
2018-11-28T16:31:25.449Z,17.20
2018-11-28T16:33:55.239Z,17.10
2018-11-28T16:36:24.981Z,17.10
2018-11-28T16:38:54.945Z,17.00
2018-11-28T16:41:25.146Z,17.00
2018-11-28T16:43:54.680Z,16.90
2018-11-28T16:46:25.161Z,16.90
2018-11-28T16:48:55.235Z,16.80
2018-11-28T16:51:24.592Z,16.80
2018-11-28T16:53:54.403Z,16.70
2018-11-28T16:56:24.354Z,16.70
2018-11-28T16:58:54.258Z,16.60
2018-11-28T17:01:24.745Z,16.60
2018-11-28T17:03:54.523Z,16.60
2018-11-28T17:06:24.396Z,16.50
2018-11-28T17:08:55.467Z,16.50
2018-11-28T17:11:26.532Z,16.40
2018-11-28T17:13:56.695Z,16.40
2018-11-28T17:16:26.700Z,16.30
2018-11-28T17:18:56.875Z,16.30
2018-11-28T17:21:27.125Z,16.30
2018-11-28T17:23:57.318Z,16.20
2018-11-28T17:26:27.146Z,16.20
2018-11-28T17:28:57.166Z,16.10
2018-11-28T17:31:27.412Z,16.10
2018-11-28T17:33:57.796Z,16.10
2018-11-28T17:36:29.007Z,16.00
2018-11-28T17:39:00.267Z,16.00
2018-11-28T17:41:30.569Z,16.00
2018-11-28T17:44:01.104Z,15.90
2018-11-28T17:46:31.446Z,15.90
2018-11-28T17:49:01.699Z,15.90
2018-11-28T17:51:32.042Z,15.80
2018-11-28T17:54:02.228Z,15.80
2018-11-28T17:56:32.495Z,15.70
2018-11-28T17:59:02.350Z,15.70
2018-11-28T18:01:33.149Z,15.70
2018-11-28T18:04:04.006Z,15.70
2018-11-28T18:06:34.249Z,15.60
2018-11-28T18:09:05.140Z,15.60
2018-11-28T18:11:35.945Z,15.60
2018-11-28T18:14:08.910Z,15.50
2018-11-28T18:16:43.467Z,15.50
2018-11-28T18:19:20.419Z,15.50
2018-11-28T18:21:55.226Z,15.40
2018-11-28T18:24:24.977Z,15.40
2018-11-28T18:26:55.147Z,15.40
2018-11-28T18:29:30.420Z,15.30
2018-11-28T18:32:05.957Z,15.30
2018-11-28T18:34:39.258Z,15.30
2018-11-28T18:37:10.130Z,15.20
2018-11-28T18:39:41.959Z,15.20
2018-11-28T18:42:11.827Z,15.20
2018-11-28T18:44:42.922Z,15.20
2018-11-28T18:47:16.608Z,15.10
2018-11-28T18:49:47.336Z,15.10
2018-11-28T18:52:17.547Z,15.10
2018-11-28T18:54:48.081Z,15.00
2018-11-28T18:57:18.096Z,15.00
2018-11-28T18:59:48.311Z,15.00
2018-11-28T19:02:18.379Z,15.00
2018-11-28T19:04:48.240Z,14.90
2018-11-28T19:07:18.041Z,14.90
2018-11-28T19:09:52.240Z,14.90
2018-11-28T19:12:22.018Z,14.90
2018-11-28T19:14:51.939Z,14.80
2018-11-28T19:17:22.205Z,14.80
2018-11-28T19:19:52.135Z,14.80
2018-11-28T19:22:22.844Z,14.80
2018-11-28T19:24:52.649Z,14.80
2018-11-28T19:27:22.513Z,14.70
2018-11-28T19:29:52.110Z,14.70
2018-11-28T19:32:21.342Z,14.70
2018-11-28T19:34:51.587Z,14.60
2018-11-28T19:37:21.298Z,14.60
2018-11-28T19:39:51.371Z,14.60
2018-11-28T19:42:20.987Z,14.60
2018-11-28T19:44:50.832Z,14.60
2018-11-28T19:47:20.358Z,14.50
2018-11-28T19:49:51.483Z,14.50
2018-11-28T19:52:29.985Z,14.50
2018-11-28T19:55:00.741Z,14.50
2018-11-28T19:57:34.716Z,14.50
2018-11-28T20:00:11.987Z,14.40
2018-11-28T20:02:45.699Z,14.40
2018-11-28T20:05:17.730Z,14.40
2018-11-28T20:07:48.162Z,14.40
2018-11-28T20:10:21.618Z,14.40
2018-11-28T20:12:52.688Z,14.40
2018-11-28T20:15:31.200Z,14.30
2018-11-28T20:18:03.471Z,14.30
2018-11-28T20:20:33.774Z,14.30
2018-11-28T20:23:04.393Z,14.30
2018-11-28T20:25:34.627Z,14.30
2018-11-28T20:28:05.990Z,14.20
2018-11-28T20:30:45.349Z,14.20
2018-11-28T20:33:16.847Z,14.20
2018-11-28T20:35:47.372Z,14.20
2018-11-28T20:38:25.169Z,14.20
2018-11-28T20:40:57.502Z,14.10
2018-11-28T20:43:27.663Z,14.10
2018-11-28T20:46:00.301Z,14.10
2018-11-28T20:48:35.749Z,14.10
2018-11-28T20:51:06.077Z,14.10
2018-11-28T20:53:35.736Z,14.10
2018-11-28T20:56:05.519Z,14.00
2018-11-28T20:58:36.491Z,14.00
2018-11-28T21:01:06.922Z,14.00
2018-11-28T21:03:37.988Z,14.00
2018-11-28T21:06:09.182Z,14.00
2018-11-28T21:08:43.973Z,14.00
2018-11-28T21:11:17.316Z,13.90
2018-11-28T21:13:47.367Z,13.90
2018-11-28T21:16:17.751Z,13.90
2018-11-28T21:18:54.449Z,13.90
2018-11-28T21:21:27.423Z,13.90
2018-11-28T21:23:53.183Z,13.90
2018-11-28T21:26:22.373Z,13.80
2018-11-28T21:28:51.467Z,13.80
2018-11-28T21:31:21.106Z,13.80
2018-11-28T21:33:50.494Z,13.80
2018-11-28T21:36:20.438Z,13.80
2018-11-28T21:38:50.135Z,13.80
2018-11-28T21:41:19.169Z,13.80
2018-11-28T21:43:51.115Z,13.70
2018-11-28T21:46:21.335Z,13.70
2018-11-28T21:48:52.662Z,13.70
2018-11-28T21:51:22.532Z,13.70
2018-11-28T21:53:52.066Z,13.70
2018-11-28T21:56:22.318Z,13.70
2018-11-28T21:58:52.394Z,13.60
2018-11-28T22:01:24.005Z,13.60
2018-11-28T22:03:56.509Z,13.60
2018-11-28T22:06:27.825Z,13.60
2018-11-28T22:08:57.182Z,13.50
2018-11-28T22:11:26.558Z,13.50
2018-11-28T22:13:56.997Z,13.50
2018-11-28T22:16:27.777Z,13.50
2018-11-28T22:18:58.310Z,13.50
2018-11-28T22:21:28.047Z,13.50
2018-11-28T22:23:57.623Z,13.50
2018-11-28T22:26:27.438Z,13.40
2018-11-28T22:29:00.098Z,13.40
2018-11-28T22:31:32.120Z,13.40
2018-11-28T22:34:10.367Z,13.40
2018-11-28T22:36:40.056Z,13.40
2018-11-28T22:39:10.448Z,13.40
2018-11-28T22:44:44.443Z,13.30
2018-11-28T22:47:15.657Z,13.30
2018-11-28T22:49:48.197Z,13.30
2018-11-28T22:52:26.627Z,13.30
2018-11-28T22:54:56.017Z,13.20
2018-11-28T22:57:25.232Z,13.20
2018-11-28T23:00:04.184Z,13.20
2018-11-28T23:02:45.683Z,13.20
2018-11-28T23:05:14.757Z,13.20
2018-11-28T23:07:43.956Z,13.20
2018-11-28T23:10:19.785Z,13.10
2018-11-28T23:12:49.773Z,13.10
2018-11-28T23:15:18.665Z,13.10
2018-11-28T23:17:47.770Z,13.10
2018-11-28T23:20:16.885Z,13.10
2018-11-28T23:22:45.997Z,13.10
2018-11-28T23:25:15.438Z,13.10
2018-11-28T23:27:44.320Z,13.10
2018-11-28T23:30:16.473Z,13.10
2018-11-28T23:32:45.800Z,13.00
2018-11-28T23:35:15.068Z,13.00
2018-11-28T23:37:45.344Z,13.00
2018-11-28T23:40:16.277Z,13.00
2018-11-28T23:42:45.227Z,13.00
2018-11-28T23:45:14.858Z,13.00
2018-11-28T23:47:43.958Z,13.00
2018-11-28T23:50:13.848Z,13.00
2018-11-28T23:52:43.049Z,13.00
2018-11-28T23:55:14.994Z,13.00
2018-11-28T23:57:44.169Z,13.00
